createdAt,value
2022-11-19T00:00:27.858Z,1999.90
2022-11-19T00:01:27.848Z,1999.90
2022-11-19T00:02:27.900Z,1999.90
2022-11-19T00:03:27.830Z,1999.90
2022-11-19T00:04:27.827Z,1999.90
2022-11-19T00:05:27.818Z,1999.90
2022-11-19T00:06:27.818Z,1999.90
2022-11-19T00:07:27.807Z,1999.90
2022-11-19T00:08:27.760Z,1999.90
2022-11-19T00:09:27.772Z,1999.90
2022-11-19T00:10:27.733Z,1999.90
2022-11-19T00:11:27.753Z,1999.90
2022-11-19T00:12:27.774Z,1999.90
2022-11-19T00:13:27.728Z,1999.90
2022-11-19T00:14:27.705Z,1999.90
2022-11-19T00:15:27.699Z,1999.90
2022-11-19T00:16:27.677Z,1999.90
2022-11-19T00:17:27.699Z,1999.90
2022-11-19T00:18:27.662Z,1999.90
2022-11-19T00:19:27.664Z,1999.90
2022-11-19T00:20:27.650Z,1999.90
2022-11-19T00:21:27.656Z,1999.90
2022-11-19T00:22:27.663Z,1999.90
2022-11-19T00:23:27.626Z,1999.90
2022-11-19T00:24:27.601Z,1999.90
2022-11-19T00:25:27.583Z,1999.90
2022-11-19T00:26:27.570Z,1999.90
2022-11-19T00:27:27.606Z,1999.90
2022-11-19T00:28:27.565Z,1999.90
2022-11-19T00:29:27.544Z,1999.90
2022-11-19T00:30:46.959Z,1999.90
2022-11-19T00:31:28.535Z,1999.90
2022-11-19T00:32:27.542Z,1999.90
2022-11-19T00:33:27.504Z,1999.90
2022-11-19T00:34:27.504Z,1999.90
2022-11-19T00:35:27.487Z,1999.90
2022-11-19T00:36:27.483Z,1999.90
2022-11-19T00:37:27.512Z,1999.90
2022-11-19T00:38:27.460Z,1999.90
2022-11-19T00:39:27.448Z,1999.90
2022-11-19T00:40:27.438Z,1999.90
2022-11-19T00:41:27.411Z,1999.90
2022-11-19T00:42:27.444Z,1999.90
2022-11-19T00:43:27.420Z,1999.90
2022-11-19T00:44:29.443Z,1999.90
2022-11-19T00:45:28.391Z,1999.90
2022-11-19T00:46:27.367Z,1999.90
2022-11-19T00:47:27.394Z,1999.90
2022-11-19T00:48:27.338Z,1999.90
2022-11-19T00:49:27.351Z,1999.90
2022-11-19T00:50:27.321Z,1999.90
2022-11-19T00:51:27.327Z,1999.90
2022-11-19T00:52:27.295Z,1999.90
2022-11-19T00:53:27.331Z,1999.90
2022-11-19T00:54:27.283Z,1999.90
2022-11-19T00:55:27.265Z,1999.90
2022-11-19T00:56:27.263Z,1999.90
2022-11-19T00:57:27.249Z,1999.90
2022-11-19T00:58:27.266Z,1999.90
2022-11-19T00:59:27.217Z,1999.90
2022-11-19T01:00:27.223Z,1999.90
2022-11-19T01:01:27.263Z,1371.80
2022-11-19T01:02:27.203Z,1134.70
2022-11-19T01:03:27.232Z,1111.00
2022-11-19T01:04:27.184Z,1140.20
2022-11-19T01:05:27.168Z,1096.70
2022-11-19T01:06:27.133Z,1214.90
2022-11-19T01:07:27.177Z,1246.40
2022-11-19T01:08:27.154Z,1217.40
2022-11-19T01:09:27.145Z,1194.60
2022-11-19T01:10:27.114Z,1177.30
2022-11-19T01:11:27.108Z,1130.80
2022-11-19T01:12:27.093Z,1081.20
2022-11-19T01:13:27.116Z,1081.70
2022-11-19T01:14:27.061Z,1167.70
2022-11-19T01:15:27.067Z,1138.20
2022-11-19T01:16:27.059Z,1156.00
2022-11-19T01:17:27.040Z,1150.80
2022-11-19T01:18:27.073Z,1150.90
2022-11-19T01:19:27.007Z,1155.10
2022-11-19T01:20:27.060Z,1175.80
2022-11-19T01:21:26.979Z,1139.40
2022-11-19T01:22:26.988Z,1169.80
2022-11-19T01:23:27.018Z,1169.70
2022-11-19T01:24:26.979Z,1159.70
2022-11-19T01:25:26.946Z,1160.60
2022-11-19T01:26:26.951Z,1161.10
2022-11-19T01:27:26.924Z,1154.80
2022-11-19T01:28:26.930Z,1160.30
2022-11-19T01:29:26.956Z,1160.30
2022-11-19T01:30:26.895Z,1152.20
2022-11-19T01:31:26.885Z,1124.10
2022-11-19T01:32:26.867Z,1132.30
2022-11-19T01:33:26.863Z,1122.40
2022-11-19T01:34:26.894Z,1106.00
2022-11-19T01:35:26.847Z,1090.80
2022-11-19T01:36:26.830Z,1082.70
2022-11-19T01:37:26.822Z,1097.80
2022-11-19T01:38:26.809Z,1114.40
2022-11-19T01:39:26.823Z,1124.60
2022-11-19T01:40:26.789Z,1131.80
2022-11-19T01:41:26.765Z,1123.00
2022-11-19T01:42:26.766Z,1129.60
2022-11-19T01:43:26.736Z,1117.20
2022-11-19T01:44:26.762Z,1125.90
2022-11-19T01:45:26.709Z,1134.50
2022-11-19T01:46:26.717Z,1138.90
2022-11-19T01:47:27.517Z,1135.00
2022-11-19T01:48:26.711Z,1144.60
2022-11-19T01:49:26.721Z,1122.90
2022-11-19T01:50:26.694Z,1126.30
2022-11-19T01:51:26.663Z,1211.30
2022-11-19T01:52:26.648Z,1196.60
2022-11-19T01:53:26.646Z,1200.70
2022-11-19T01:54:26.699Z,1204.90
2022-11-19T01:55:26.622Z,1186.10
2022-11-19T01:56:26.609Z,1172.10
2022-11-19T01:57:26.603Z,1167.40
2022-11-19T01:58:26.583Z,1158.00
2022-11-19T01:59:26.607Z,1148.50
2022-11-19T02:00:26.573Z,1164.80
2022-11-19T02:01:26.580Z,1141.90
2022-11-19T02:02:26.545Z,1159.20
2022-11-19T02:03:26.519Z,1144.20
2022-11-19T02:04:26.560Z,1155.40
2022-11-19T02:05:26.515Z,1143.00
2022-11-19T02:06:26.499Z,1135.70
2022-11-19T02:07:26.552Z,1128.20
2022-11-19T02:08:26.472Z,1138.50
2022-11-19T02:09:26.513Z,1160.60
2022-11-19T02:10:26.462Z,1161.50
2022-11-19T02:11:26.437Z,1143.40
2022-11-19T02:12:26.433Z,1134.80
2022-11-19T02:13:26.425Z,1120.50
2022-11-19T02:14:26.447Z,1166.30
2022-11-19T02:15:26.400Z,1156.80
2022-11-19T02:16:26.389Z,1118.70
2022-11-19T02:17:26.386Z,1123.90
2022-11-19T02:18:26.354Z,1163.80
2022-11-19T02:19:26.366Z,1157.10
2022-11-19T02:20:26.334Z,1160.20
2022-11-19T02:21:26.325Z,1162.20
2022-11-19T02:22:26.321Z,1144.00
2022-11-19T02:23:26.320Z,1138.60
2022-11-19T02:24:26.310Z,1152.20
2022-11-19T02:25:26.328Z,1140.70
2022-11-19T02:26:26.287Z,1120.90
2022-11-19T02:27:26.264Z,1097.60
2022-11-19T02:28:26.262Z,1125.30
2022-11-19T02:29:26.255Z,1145.60
2022-11-19T02:30:26.271Z,1092.70
2022-11-19T02:31:26.214Z,1082.30
2022-11-19T02:32:26.224Z,1140.80
2022-11-19T02:33:26.202Z,1110.80
2022-11-19T02:34:26.188Z,1108.90
2022-11-19T02:35:26.226Z,1134.30
2022-11-19T02:36:26.187Z,1131.30
2022-11-19T02:37:26.155Z,1099.00
2022-11-19T02:38:26.156Z,1136.60
2022-11-19T02:39:26.138Z,1122.20
2022-11-19T02:40:26.191Z,1122.00
2022-11-19T02:41:26.128Z,1118.40
2022-11-19T02:42:26.102Z,1101.60
2022-11-19T02:43:26.105Z,1093.90
2022-11-19T02:44:26.085Z,1113.70
2022-11-19T02:45:26.087Z,1116.20
2022-11-19T02:46:26.069Z,1091.40
2022-11-19T02:47:26.040Z,1098.00
2022-11-19T02:48:26.043Z,1117.10
2022-11-19T02:49:26.013Z,1100.50
2022-11-19T02:50:26.045Z,1124.40
2022-11-19T02:51:26.007Z,1113.70
2022-11-19T02:52:26.010Z,1123.80
2022-11-19T02:53:25.965Z,1101.70
2022-11-19T02:54:25.986Z,1101.10
2022-11-19T02:55:25.951Z,1090.80
2022-11-19T02:56:25.973Z,1099.10
2022-11-19T02:57:25.928Z,1116.20
2022-11-19T02:58:25.914Z,1130.50
2022-11-19T02:59:25.928Z,1131.40
2022-11-19T03:00:25.913Z,1127.90
2022-11-19T03:01:25.963Z,1110.00
2022-11-19T03:02:25.883Z,1077.80
2022-11-19T03:03:25.884Z,1068.90
2022-11-19T03:04:25.862Z,1092.50
2022-11-19T03:05:25.860Z,1096.40
2022-11-19T03:06:25.873Z,1090.10
2022-11-19T03:07:25.898Z,1081.00
2022-11-19T03:08:25.825Z,1085.00
2022-11-19T03:09:25.783Z,1066.90
2022-11-19T03:10:25.790Z,1057.00
2022-11-19T03:11:25.815Z,1044.90
2022-11-19T03:12:25.781Z,1069.90
2022-11-19T03:13:25.757Z,1077.60
2022-11-19T03:14:25.777Z,1068.40
2022-11-19T03:15:25.748Z,1055.80
2022-11-19T03:16:25.776Z,1070.50
2022-11-19T03:17:25.758Z,1077.80
2022-11-19T03:18:25.730Z,1058.00
2022-11-19T03:19:25.696Z,1087.30
2022-11-19T03:20:25.706Z,1065.70
2022-11-19T03:21:25.724Z,1072.00
2022-11-19T03:22:25.690Z,1058.50
2022-11-19T03:23:25.655Z,1020.80
2022-11-19T03:24:25.645Z,1007.20
2022-11-19T03:25:25.634Z,1026.90
2022-11-19T03:26:25.674Z,1053.30
2022-11-19T03:27:25.632Z,1050.50
2022-11-19T03:28:25.609Z,1064.30
2022-11-19T03:29:25.597Z,1051.60
2022-11-19T03:30:25.589Z,1054.90
2022-11-19T03:31:25.560Z,1051.30
2022-11-19T03:32:25.585Z,1055.50
2022-11-19T03:33:25.555Z,1057.30
2022-11-19T03:34:25.542Z,1060.00
2022-11-19T03:35:25.549Z,1063.80
2022-11-19T03:36:25.528Z,1068.20
2022-11-19T03:37:25.550Z,1076.80
2022-11-19T03:38:25.512Z,1100.50
2022-11-19T03:39:25.486Z,1094.70
2022-11-19T03:40:25.493Z,1101.10
2022-11-19T03:41:25.467Z,1092.10
2022-11-19T03:42:25.495Z,1087.70
2022-11-19T03:43:25.443Z,1089.10
2022-11-19T03:44:25.450Z,1097.90
2022-11-19T03:45:25.419Z,1079.80
2022-11-19T03:46:25.407Z,1068.50
2022-11-19T03:47:25.447Z,1084.80
2022-11-19T03:48:25.379Z,1091.90
2022-11-19T03:49:25.378Z,1098.30
2022-11-19T03:50:25.387Z,1096.40
2022-11-19T03:51:25.361Z,1091.80
2022-11-19T03:52:25.382Z,1093.50
2022-11-19T03:53:25.345Z,1085.20
2022-11-19T03:54:25.331Z,1099.10
2022-11-19T03:55:25.341Z,1100.40
2022-11-19T03:56:25.303Z,1096.10
2022-11-19T03:57:25.331Z,1077.80
2022-11-19T03:58:25.298Z,1077.90
2022-11-19T03:59:29.381Z,1094.70
2022-11-19T04:00:25.262Z,1091.00
2022-11-19T04:01:25.305Z,1060.00
2022-11-19T04:02:25.249Z,1054.00
2022-11-19T04:03:25.265Z,1060.00
2022-11-19T04:04:25.228Z,1061.10
2022-11-19T04:05:25.219Z,1060.70
2022-11-19T04:06:25.204Z,1053.80
2022-11-19T04:07:25.276Z,1056.00
2022-11-19T04:08:25.202Z,1048.70
2022-11-19T04:09:25.153Z,1045.10
2022-11-19T04:10:25.150Z,1023.60
2022-11-19T04:12:24.267Z,976.90
2022-11-19T04:13:24.272Z,1008.00
2022-11-19T04:14:24.249Z,1095.60
2022-11-19T04:15:24.227Z,1088.20
2022-11-19T04:16:24.220Z,1089.50
2022-11-19T04:17:24.190Z,1085.60
2022-11-19T04:18:24.216Z,1055.40
2022-11-19T04:19:24.174Z,1055.40
2022-11-19T04:20:24.159Z,1045.40
2022-11-19T04:21:24.152Z,1034.70
2022-11-19T04:22:24.146Z,1042.30
2022-11-19T04:23:24.167Z,1043.00
2022-11-19T04:24:24.123Z,1046.30
2022-11-19T04:25:24.135Z,1047.30
2022-11-19T04:26:24.096Z,1024.80
2022-11-19T04:27:24.096Z,1034.80
2022-11-19T04:28:24.084Z,1041.60
2022-11-19T04:29:24.107Z,1045.20
2022-11-19T04:30:24.061Z,1019.90
2022-11-19T04:31:24.043Z,1002.80
2022-11-19T04:32:24.037Z,971.50
2022-11-19T04:33:24.024Z,918.60
2022-11-19T04:34:24.038Z,893.00
2022-11-19T04:35:24.020Z,871.80
2022-11-19T04:36:23.994Z,908.50
2022-11-19T04:37:23.964Z,941.70
2022-11-19T04:38:23.983Z,958.70
2022-11-19T04:39:24.003Z,996.00
2022-11-19T04:40:23.957Z,998.00
2022-11-19T04:41:23.928Z,1009.30
2022-11-19T04:42:23.908Z,1010.70
2022-11-19T04:43:23.903Z,993.80
2022-11-19T04:44:23.929Z,969.50
2022-11-19T04:45:23.902Z,944.70
2022-11-19T04:46:23.895Z,916.70
2022-11-19T04:47:23.884Z,913.80
2022-11-19T04:48:23.862Z,920.20
2022-11-19T04:49:23.879Z,900.80
2022-11-19T04:50:23.846Z,839.40
2022-11-19T04:51:23.844Z,806.00
2022-11-19T04:52:23.825Z,771.40
2022-11-19T04:53:23.817Z,755.70
2022-11-19T04:54:23.825Z,755.20
2022-11-19T04:55:23.782Z,766.70
2022-11-19T04:56:23.783Z,779.10
2022-11-19T04:57:23.765Z,783.40
2022-11-19T04:58:23.762Z,797.20
2022-11-19T04:59:23.778Z,797.00
2022-11-19T05:00:23.743Z,796.20
2022-11-19T05:01:23.851Z,786.00
2022-11-19T05:02:23.723Z,778.20
2022-11-19T05:03:23.701Z,790.10
2022-11-19T05:04:23.693Z,807.50
2022-11-19T05:05:23.721Z,838.00
2022-11-19T05:06:23.662Z,873.70
2022-11-19T05:07:23.725Z,902.50
2022-11-19T05:08:23.641Z,914.80
2022-11-19T05:09:23.633Z,894.80
2022-11-19T05:10:23.662Z,900.10
2022-11-19T05:11:23.624Z,916.30
2022-11-19T05:12:23.596Z,904.30
2022-11-19T05:13:23.601Z,917.30
2022-11-19T05:14:27.373Z,910.40
2022-11-19T05:15:24.602Z,915.90
2022-11-19T05:16:23.566Z,917.60
2022-11-19T05:17:23.539Z,916.40
2022-11-19T05:18:23.524Z,912.50
2022-11-19T05:19:23.511Z,917.90
2022-11-19T05:20:23.535Z,901.90
2022-11-19T05:21:23.495Z,891.90
2022-11-19T05:22:23.525Z,899.40
2022-11-19T05:23:23.485Z,881.10
2022-11-19T05:24:23.480Z,875.50
2022-11-19T05:25:23.488Z,873.40
2022-11-19T05:26:23.456Z,888.30
2022-11-19T05:27:23.448Z,884.60
2022-11-19T05:28:37.651Z,875.70
2022-11-19T05:29:24.422Z,879.30
2022-11-19T05:30:23.455Z,878.10
2022-11-19T05:31:23.381Z,888.50
2022-11-19T05:32:23.378Z,878.80
2022-11-19T05:33:23.374Z,868.90
2022-11-19T05:34:24.132Z,876.50
2022-11-19T05:35:23.375Z,887.30
2022-11-19T05:36:23.341Z,887.90
2022-11-19T05:37:23.333Z,892.40
2022-11-19T05:38:23.326Z,912.80
2022-11-19T05:39:23.602Z,849.60
2022-11-19T05:40:23.334Z,887.70
2022-11-19T05:41:23.296Z,894.70
2022-11-19T05:42:23.276Z,1004.40
2022-11-19T05:43:23.274Z,1009.30
2022-11-19T05:44:23.257Z,992.20
2022-11-19T05:45:23.236Z,972.60
2022-11-19T05:46:23.277Z,901.60
2022-11-19T05:47:23.221Z,898.30
2022-11-19T05:48:23.223Z,934.40
2022-11-19T05:49:23.194Z,966.00
2022-11-19T05:50:23.205Z,939.60
2022-11-19T05:51:23.213Z,971.40
2022-11-19T05:52:23.173Z,1002.20
2022-11-19T05:53:23.141Z,931.80
2022-11-19T05:54:23.185Z,917.10
2022-11-19T05:55:23.127Z,922.40
2022-11-19T05:56:23.151Z,937.20
2022-11-19T05:57:23.118Z,957.90
2022-11-19T05:58:23.128Z,962.20
2022-11-19T05:59:23.108Z,963.90
2022-11-19T06:00:23.087Z,924.90
2022-11-19T06:01:23.099Z,950.80
2022-11-19T06:02:23.069Z,983.30
2022-11-19T06:03:23.056Z,1062.30
2022-11-19T06:04:23.028Z,1114.30
2022-11-19T06:05:23.042Z,1112.80
2022-11-19T06:06:23.072Z,1065.90
2022-11-19T06:07:23.029Z,1082.40
2022-11-19T06:08:23.023Z,1060.50
2022-11-19T06:09:22.992Z,1000.60
2022-11-19T06:10:22.985Z,980.40
2022-11-19T06:11:23.010Z,964.60
2022-11-19T06:12:22.964Z,950.50
2022-11-19T06:13:22.930Z,971.30
2022-11-19T06:14:22.935Z,991.90
2022-11-19T06:15:22.936Z,973.00
2022-11-19T06:16:22.938Z,981.70
2022-11-19T06:17:22.897Z,987.40
2022-11-19T06:18:22.908Z,1000.20
2022-11-19T06:19:23.092Z,1012.00
2022-11-19T06:20:22.884Z,1020.20
2022-11-19T06:21:22.899Z,1016.30
2022-11-19T06:22:22.850Z,1007.40
2022-11-19T06:23:22.836Z,1002.70
2022-11-19T06:24:22.834Z,1005.50
2022-11-19T06:25:22.809Z,999.70
2022-11-19T06:26:22.841Z,1001.90
2022-11-19T06:27:22.794Z,1010.60
2022-11-19T06:28:22.810Z,1014.20
2022-11-19T06:29:22.903Z,1003.40
2022-11-19T06:30:22.750Z,1003.90
2022-11-19T06:31:22.779Z,1005.90
2022-11-19T06:32:22.728Z,996.80
2022-11-19T06:33:22.752Z,1019.10
2022-11-19T06:34:22.724Z,1000.40
2022-11-19T06:35:22.718Z,1008.40
2022-11-19T06:36:24.385Z,1010.10
2022-11-19T06:37:22.693Z,1010.90
2022-11-19T06:38:22.683Z,1014.40
2022-11-19T06:39:23.062Z,1018.10
2022-11-19T06:40:22.665Z,1006.10
2022-11-19T06:41:22.690Z,1021.30
2022-11-19T06:42:22.640Z,1037.90
2022-11-19T06:43:22.612Z,1052.70
2022-11-19T06:44:22.627Z,1052.40
2022-11-19T06:45:22.589Z,1074.90
2022-11-19T06:46:22.633Z,1078.70
2022-11-19T06:47:22.572Z,1062.50
2022-11-19T06:48:22.589Z,1071.20
2022-11-19T06:49:22.746Z,1077.20
2022-11-19T06:50:22.568Z,1085.00
2022-11-19T06:51:22.626Z,1069.10
2022-11-19T06:52:22.546Z,1073.00
2022-11-19T06:53:22.516Z,1079.40
2022-11-19T06:54:22.551Z,1077.20
2022-11-19T06:55:22.505Z,1037.60
2022-11-19T06:56:22.525Z,1041.50
2022-11-19T06:57:22.475Z,1089.10
2022-11-19T06:58:22.449Z,1099.60
2022-11-19T06:59:22.530Z,1024.60
2022-11-19T07:00:22.441Z,1061.10
2022-11-19T07:01:22.489Z,1055.00
2022-11-19T07:02:22.431Z,1043.00
2022-11-19T07:03:22.420Z,1050.50
2022-11-19T07:04:22.409Z,1038.70
2022-11-19T07:05:22.382Z,1020.00
2022-11-19T07:06:22.400Z,1010.90
2022-11-19T07:07:22.405Z,1035.20
2022-11-19T07:08:22.355Z,992.30
2022-11-19T07:09:22.444Z,1111.90
2022-11-19T07:10:22.341Z,1403.50
2022-11-19T07:11:22.358Z,1574.70
2022-11-19T07:12:22.339Z,1999.90
2022-11-19T07:13:22.306Z,1999.90
2022-11-19T07:14:22.307Z,1999.90
2022-11-19T07:15:22.277Z,1999.90
2022-11-19T07:16:22.260Z,1999.90
2022-11-19T07:17:22.296Z,1999.90
2022-11-19T07:18:22.266Z,1999.90
2022-11-19T07:19:22.610Z,1999.90
2022-11-19T07:20:22.221Z,1999.90
2022-11-19T07:21:22.220Z,1999.90
2022-11-19T07:22:22.249Z,1999.90
2022-11-19T07:23:22.201Z,1999.90
2022-11-19T07:24:22.213Z,1999.90
2022-11-19T07:25:22.187Z,1999.90
2022-11-19T07:26:22.161Z,1999.90
2022-11-19T07:27:22.181Z,1999.90
2022-11-19T07:28:22.140Z,1999.90
2022-11-19T07:29:22.611Z,1999.90
2022-11-19T07:30:22.132Z,1999.90
2022-11-19T07:31:22.124Z,1999.90
2022-11-19T07:32:22.142Z,1999.90
2022-11-19T07:33:22.093Z,1999.90
2022-11-19T07:34:22.091Z,1999.90
2022-11-19T07:35:22.057Z,1999.90
2022-11-19T07:36:22.063Z,1999.90
2022-11-19T07:37:22.087Z,1999.90
2022-11-19T07:38:22.035Z,1999.90
2022-11-19T07:39:22.551Z,1999.90
2022-11-19T07:40:22.051Z,1999.90
2022-11-19T07:41:21.987Z,480.00
2022-11-19T07:42:22.004Z,308.90
2022-11-19T07:43:21.956Z,1999.90
2022-11-19T07:44:21.964Z,1999.90
2022-11-19T07:45:21.956Z,1999.90
2022-11-19T07:46:21.943Z,1999.90
2022-11-19T07:47:21.987Z,446.90
2022-11-19T07:48:21.936Z,374.40
2022-11-19T07:49:22.276Z,1999.90
2022-11-19T07:50:21.897Z,385.00
2022-11-19T07:51:21.886Z,1999.90
2022-11-19T07:52:21.903Z,1999.90
2022-11-19T07:53:21.865Z,1999.90
2022-11-19T07:54:21.873Z,1999.90
2022-11-19T07:55:21.844Z,1999.90
2022-11-19T07:56:21.841Z,312.80
2022-11-19T07:57:25.863Z,1999.90
2022-11-19T07:58:22.808Z,1999.90
2022-11-19T07:59:22.074Z,1999.90
2022-11-19T08:00:21.798Z,1999.90
2022-11-19T08:01:21.821Z,1999.90
2022-11-19T08:02:21.808Z,291.00
2022-11-19T08:03:21.765Z,279.60
2022-11-19T08:04:21.744Z,1999.90
2022-11-19T08:05:21.752Z,1999.90
2022-11-19T08:06:21.740Z,1999.90
2022-11-19T08:07:21.806Z,1999.90
2022-11-19T08:08:21.702Z,1999.90
2022-11-19T08:09:22.022Z,287.80
2022-11-19T08:10:21.692Z,137.40
2022-11-19T08:11:21.672Z,333.70
2022-11-19T08:12:21.688Z,1999.90
2022-11-19T08:13:21.634Z,373.60
2022-11-19T08:14:21.642Z,332.00
2022-11-19T08:15:21.630Z,151.60
2022-11-19T08:16:21.605Z,390.30
2022-11-19T08:17:21.624Z,131.90
2022-11-19T08:18:21.575Z,1999.90
2022-11-19T08:19:21.888Z,291.80
2022-11-19T08:20:21.543Z,1999.90
2022-11-19T08:21:21.570Z,1999.90
2022-11-19T08:22:21.561Z,442.60
2022-11-19T08:23:21.569Z,206.90
2022-11-19T08:24:21.792Z,250.40
2022-11-19T08:25:21.521Z,1999.90
2022-11-19T08:26:21.523Z,165.80
2022-11-19T08:27:21.481Z,274.50
2022-11-19T08:28:21.495Z,1999.90
2022-11-19T08:29:21.466Z,382.00
2022-11-19T08:30:21.451Z,336.50
2022-11-19T08:31:21.447Z,407.50
2022-11-19T08:32:21.411Z,290.70
2022-11-19T08:33:21.451Z,248.80
2022-11-19T08:34:21.845Z,284.00
2022-11-19T08:35:21.411Z,328.60
2022-11-19T08:36:21.384Z,235.30
2022-11-19T08:37:21.384Z,363.70
2022-11-19T08:38:21.415Z,877.90
2022-11-19T08:39:21.346Z,332.20
2022-11-19T08:40:21.352Z,341.60
2022-11-19T08:41:21.326Z,175.40
2022-11-19T08:42:21.326Z,111.80
2022-11-19T08:43:21.352Z,86.30
2022-11-19T08:44:21.701Z,118.00
2022-11-19T08:45:21.293Z,58.10
2022-11-19T08:46:21.293Z,118.50
2022-11-19T08:47:21.270Z,100.80
2022-11-19T08:48:21.289Z,125.10
2022-11-19T08:49:21.248Z,127.30
2022-11-19T08:50:21.218Z,246.40
2022-11-19T08:51:21.228Z,225.10
2022-11-19T08:52:21.207Z,218.50
2022-11-19T08:53:21.219Z,263.40
2022-11-19T08:54:21.606Z,119.40
2022-11-19T08:55:21.166Z,224.30
2022-11-19T08:56:21.139Z,264.90
2022-11-19T08:57:21.148Z,167.20
2022-11-19T08:58:21.154Z,285.40
2022-11-19T08:59:21.395Z,445.70
2022-11-19T09:00:21.120Z,577.50
2022-11-19T09:01:21.159Z,402.50
2022-11-19T09:02:21.093Z,473.10
2022-11-19T09:03:21.127Z,480.70
2022-11-19T09:04:21.341Z,519.40
2022-11-19T09:05:21.061Z,233.40
2022-11-19T09:06:21.051Z,449.90
2022-11-19T09:07:21.110Z,297.50
2022-11-19T09:08:21.072Z,388.70
2022-11-19T09:09:21.028Z,500.80
2022-11-19T09:10:20.994Z,725.80
2022-11-19T09:11:21.001Z,501.90
2022-11-19T09:12:20.977Z,1999.90
2022-11-19T09:13:20.984Z,213.50
2022-11-19T09:14:21.334Z,326.30
2022-11-19T09:15:20.948Z,770.60
2022-11-19T09:16:20.940Z,559.80
2022-11-19T09:17:20.921Z,576.30
2022-11-19T09:18:20.931Z,428.30
2022-11-19T09:19:20.941Z,379.00
2022-11-19T09:20:20.981Z,412.70
2022-11-19T09:21:20.877Z,608.70
2022-11-19T09:22:20.880Z,304.10
2022-11-19T09:23:20.888Z,562.90
2022-11-19T09:24:21.190Z,447.50
2022-11-19T09:25:20.861Z,604.90
2022-11-19T09:26:20.817Z,399.90
2022-11-19T09:27:20.838Z,988.60
2022-11-19T09:28:20.783Z,636.60
2022-11-19T09:29:20.804Z,1999.90
2022-11-19T09:30:20.792Z,444.30
2022-11-19T09:31:20.755Z,297.10
2022-11-19T09:32:25.142Z,1999.90
2022-11-19T09:33:20.742Z,313.10
2022-11-19T09:34:21.115Z,358.20
2022-11-19T09:35:20.731Z,433.20
2022-11-19T09:36:20.719Z,1999.90
2022-11-19T09:37:20.701Z,530.80
2022-11-19T09:38:20.703Z,224.20
2022-11-19T09:39:20.721Z,923.70
2022-11-19T09:40:20.805Z,178.60
2022-11-19T09:41:20.685Z,1085.50
2022-11-19T09:42:20.632Z,402.10
2022-11-19T09:43:20.643Z,611.40
2022-11-19T09:44:20.957Z,892.80
2022-11-19T09:45:20.627Z,1999.90
2022-11-19T09:46:20.624Z,373.90
2022-11-19T09:47:20.607Z,1999.90
2022-11-19T09:48:20.649Z,496.20
2022-11-19T09:49:20.627Z,139.00
2022-11-19T09:50:20.664Z,1999.90
2022-11-19T09:51:20.576Z,228.20
2022-11-19T09:52:20.537Z,221.30
2022-11-19T09:53:20.538Z,265.30
2022-11-19T09:54:20.847Z,275.80
2022-11-19T09:55:20.510Z,210.00
2022-11-19T09:56:20.493Z,1999.90
2022-11-19T09:57:20.490Z,383.60
2022-11-19T09:58:20.476Z,1999.90
2022-11-19T09:59:20.523Z,180.00
2022-11-19T10:00:20.453Z,1999.90
2022-11-19T10:01:20.451Z,1999.90
2022-11-19T10:02:20.415Z,1999.90
2022-11-19T10:03:20.509Z,1999.90
2022-11-19T10:04:20.661Z,1999.90
2022-11-19T10:05:20.415Z,1999.90
2022-11-19T10:06:20.371Z,1999.90
2022-11-19T10:07:20.415Z,1999.90
2022-11-19T10:08:20.386Z,1999.90
2022-11-19T10:09:20.348Z,1999.90
2022-11-19T10:10:20.469Z,1999.90
2022-11-19T10:11:20.330Z,1999.90
2022-11-19T10:12:20.324Z,1999.90
2022-11-19T10:13:20.322Z,1999.90
2022-11-19T10:14:20.617Z,1999.90
2022-11-19T10:15:20.330Z,211.60
2022-11-19T10:16:20.296Z,1999.90
2022-11-19T10:17:20.268Z,1999.90
2022-11-19T10:18:20.276Z,1999.90
2022-11-19T10:19:20.277Z,143.20
2022-11-19T10:20:20.269Z,1999.90
2022-11-19T10:21:20.242Z,335.50
2022-11-19T10:22:20.191Z,255.70
2022-11-19T10:23:20.212Z,91.20
2022-11-19T10:24:20.350Z,433.40
2022-11-19T10:25:20.209Z,290.80
2022-11-19T10:26:20.150Z,239.00
2022-11-19T10:27:20.161Z,473.00
2022-11-19T10:28:20.142Z,1999.90
2022-11-19T10:29:20.460Z,1999.90
2022-11-19T10:30:20.146Z,1999.90
2022-11-19T10:31:20.122Z,1999.90
2022-11-19T10:32:20.107Z,1999.90
2022-11-19T10:33:20.088Z,1999.90
2022-11-19T10:34:20.072Z,737.30
2022-11-19T10:35:20.117Z,127.80
2022-11-19T10:36:20.068Z,42.60
2022-11-19T10:37:20.040Z,27.00
2022-11-19T10:38:20.010Z,25.80
2022-11-19T10:39:20.155Z,33.50
2022-11-19T10:40:20.029Z,33.70
2022-11-19T10:41:19.988Z,30.70
2022-11-19T10:42:19.970Z,62.70
2022-11-19T10:43:23.455Z,31.40
2022-11-19T10:44:20.427Z,31.70
2022-11-19T10:45:19.993Z,42.10
2022-11-19T10:46:19.933Z,49.40
2022-11-19T10:47:19.936Z,31.80
2022-11-19T10:48:19.920Z,28.60
2022-11-19T10:49:20.206Z,26.90
2022-11-19T10:50:19.929Z,22.40
2022-11-19T10:51:19.882Z,22.10
2022-11-19T10:52:19.984Z,26.30
2022-11-19T10:53:19.871Z,21.20
2022-11-19T10:54:19.851Z,20.40
2022-11-19T10:55:19.869Z,14.40
2022-11-19T10:56:19.872Z,16.40
2022-11-19T10:57:19.825Z,14.40
2022-11-19T10:58:19.810Z,17.10
2022-11-19T10:59:20.127Z,14.90
2022-11-19T11:00:19.800Z,11.00
2022-11-19T11:01:19.857Z,10.00
2022-11-19T11:02:22.643Z,10.60
2022-11-19T11:03:20.740Z,13.40
2022-11-19T11:04:19.735Z,14.70
2022-11-19T11:05:19.776Z,15.20
2022-11-19T11:06:19.762Z,16.30
2022-11-19T11:07:19.763Z,15.00
2022-11-19T11:08:19.731Z,11.20
2022-11-19T11:09:19.806Z,11.40
2022-11-19T11:10:19.649Z,10.90
2022-11-19T11:11:19.704Z,10.50
2022-11-19T11:12:19.643Z,10.10
2022-11-19T11:13:19.647Z,8.60
2022-11-19T11:14:19.612Z,8.40
2022-11-19T11:15:19.628Z,8.00
2022-11-19T11:16:19.624Z,8.30
2022-11-19T11:17:19.591Z,8.80
2022-11-19T11:18:19.571Z,9.60
2022-11-19T11:19:19.925Z,8.10
2022-11-19T11:20:19.556Z,7.80
2022-11-19T11:21:19.589Z,7.50
2022-11-19T11:22:19.540Z,7.00
2022-11-19T11:23:19.520Z,7.80
2022-11-19T11:24:19.530Z,7.90
2022-11-19T11:25:19.568Z,8.00
2022-11-19T11:26:19.518Z,8.50
2022-11-19T11:27:19.473Z,9.30
2022-11-19T11:28:19.466Z,8.40
2022-11-19T11:29:19.602Z,7.60
2022-11-19T11:30:19.439Z,8.20
2022-11-19T11:31:19.469Z,8.50
2022-11-19T11:32:19.430Z,8.80
2022-11-19T11:33:19.409Z,9.20
2022-11-19T11:34:19.394Z,8.50
2022-11-19T11:35:19.388Z,8.50
2022-11-19T11:36:19.408Z,8.40
2022-11-19T11:37:19.370Z,9.00
2022-11-19T11:38:19.362Z,7.90
2022-11-19T11:39:19.765Z,8.00
2022-11-19T11:40:19.332Z,8.20
2022-11-19T11:42:03.390Z,7.70
2022-11-19T11:42:20.312Z,7.80
2022-11-19T11:43:19.307Z,8.10
2022-11-19T11:44:19.297Z,8.00
2022-11-19T11:45:19.281Z,8.10
2022-11-19T11:46:19.322Z,7.10
2022-11-19T11:47:19.262Z,7.20
2022-11-19T11:48:19.250Z,7.80
2022-11-19T11:49:19.229Z,7.80
2022-11-19T11:50:19.231Z,7.50
2022-11-19T11:51:19.250Z,7.50
2022-11-19T11:52:19.173Z,7.50
2022-11-19T11:53:19.195Z,7.40
2022-11-19T11:54:19.181Z,7.80
2022-11-19T11:55:19.205Z,7.60
2022-11-19T11:56:19.160Z,8.20
2022-11-19T11:57:19.218Z,8.70
2022-11-19T11:58:19.132Z,7.90
2022-11-19T11:59:19.427Z,7.10
2022-11-19T12:00:19.101Z,8.10
2022-11-19T12:01:19.116Z,7.30
2022-11-19T12:02:19.185Z,7.70
2022-11-19T12:03:19.107Z,8.10
2022-11-19T12:04:19.065Z,7.80
2022-11-19T12:05:19.032Z,7.70
2022-11-19T12:06:19.053Z,6.30
2022-11-19T12:07:19.168Z,7.70
2022-11-19T12:08:21.715Z,8.00
2022-11-19T12:09:20.307Z,7.60
2022-11-19T12:10:19.004Z,7.40
2022-11-19T12:11:18.984Z,7.70
2022-11-19T12:12:19.013Z,7.80
2022-11-19T12:13:18.961Z,8.00
2022-11-19T12:14:18.945Z,7.50
2022-11-19T12:15:18.954Z,7.40
2022-11-19T12:16:18.933Z,7.70
2022-11-19T12:17:18.975Z,8.30
2022-11-19T12:18:18.896Z,8.40
2022-11-19T12:19:19.285Z,8.20
2022-11-19T12:20:18.877Z,8.40
2022-11-19T12:21:18.864Z,8.90